This is the latest recevied weather packets stored in our database for station/object W8CEN. If no packets are shown the sender has not sent any weather packets the latest 10 day(s).
| Time | Temp. | Humidity | Pressure | Rain* | Wind** | Luminosity | Snow |
|---|---|---|---|---|---|---|---|
| 1777584595 | 14.44° C | 39% | 992.5 hPa | 0 mm | - | 112 W/m² | - |
| 1777584291 | 14.44° C | 42% | 992.5 hPa | 0 mm | - | 101 W/m² | - |
| 1777583987 | 13.89° C | 43% | 992.4 hPa | 0 mm | - | 273 W/m² | - |
| 1777583681 | 13.33° C | 42% | 992.7 hPa | 0 mm | - | 153 W/m² | - |
| 1777583381 | 13.33° C | 42% | 992.8 hPa | 0 mm | - | 152 W/m² | - |
| 1777583080 | 13.89° C | 39% | 992.7 hPa | 0 mm | - | 111 W/m² | - |
| 1777582777 | 14.44° C | 37% | 992.8 hPa | 0 mm | - | 130 W/m² | - |
| 1777582473 | 15° C | 38% | 992.6 hPa | 0 mm | - | 167 W/m² | - |
| 1777582173 | 15.56° C | 37% | 992.7 hPa | 0 mm | - | 589 W/m² | - |
| 1777581872 | 15.56° C | 35% | 992.8 hPa | 0 mm | - | 681 W/m² | - |
| 1777581567 | 15° C | 38% | 992.9 hPa | 0 mm | - | 718 W/m² | - |
| 1777581262 | 13.33° C | 43% | 993.1 hPa | 0 mm | - | 765 W/m² | - |
| 1777580956 | 13.89° C | 37% | 992.8 hPa | 0 mm | - | 220 W/m² | - |
| 1777580651 | 14.44° C | 39% | 992.8 hPa | 0 mm | - | 192 W/m² | - |
| 1777580347 | 15.56° C | 41% | 992.8 hPa | 0 mm | - | 549 W/m² | - |
| 1777580043 | 16.67° C | 34% | 992.7 hPa | 0 mm | - | 849 W/m² | - |
| 1777579740 | 16.67° C | 35% | 992.7 hPa | 0 mm | - | 832 W/m² | - |
| 1777579438 | 16.11° C | 39% | 992.7 hPa | 0 mm | - | 847 W/m² | - |
| 1777579133 | 16.11° C | 39% | 992.7 hPa | 0 mm | - | 274 W/m² | - |
| 1777578833 | 16.11° C | 39% | 992.8 hPa | 0 mm | - | 905 W/m² | - |
| 1777578529 | 15.56° C | 41% | 992.9 hPa | 0 mm | - | 716 W/m² | - |
| 1777578223 | 15.56° C | 40% | 992.9 hPa | 0 mm | - | 438 W/m² | - |
| 1777577919 | 15.56° C | 41% | 993 hPa | 0 mm | - | 355 W/m² | - |
| 1777577615 | 15° C | 39% | 992.8 hPa | 0 mm | - | 255 W/m² | - |
| 1777577313 | 15° C | 40% | 993 hPa | 0 mm | - | 330 W/m² | - |
* Rain latest hour (hover to see other rain measurements)
** Current wind speed in m/s (hover to see current wind gust speed)